createdAt,value
2023-03-29T00:03:54.204Z,2.65
2023-03-29T00:09:19.099Z,2.66
2023-03-29T00:14:44.110Z,2.63
2023-03-29T00:20:12.202Z,2.58
2023-03-29T00:25:36.107Z,2.58
2023-03-29T00:31:01.504Z,2.56
2023-03-29T00:36:31.130Z,2.60
2023-03-29T00:41:57.126Z,2.70
2023-03-29T00:47:21.105Z,2.78
2023-03-29T00:52:51.108Z,2.81
2023-03-29T00:58:17.155Z,2.84
2023-03-29T01:03:53.257Z,2.85
2023-03-29T01:09:24.098Z,2.86
2023-03-29T01:14:55.152Z,2.87
2023-03-29T01:20:27.177Z,2.88
2023-03-29T01:26:10.137Z,2.88
2023-03-29T01:31:42.209Z,2.86
2023-03-29T01:37:11.150Z,2.86
2023-03-29T01:42:49.157Z,2.86
2023-03-29T01:48:23.105Z,2.84
2023-03-29T01:53:54.167Z,2.85
2023-03-29T01:59:26.151Z,2.86
2023-03-29T02:04:59.142Z,2.83
2023-03-29T02:10:26.197Z,2.84
2023-03-29T02:15:54.159Z,2.81
2023-03-29T02:21:25.134Z,2.83
2023-03-29T02:26:57.322Z,2.82
2023-03-29T02:32:28.164Z,2.83
2023-03-29T02:37:51.159Z,2.91
2023-03-29T02:43:17.157Z,2.98
2023-03-29T02:48:43.158Z,3.02
2023-03-29T02:54:16.196Z,3.04
2023-03-29T02:59:42.136Z,2.99
2023-03-29T03:05:07.434Z,2.95
2023-03-29T03:10:35.262Z,2.88
2023-03-29T03:16:01.191Z,2.89
2023-03-29T03:21:27.213Z,2.85
2023-03-29T03:26:57.181Z,2.84
2023-03-29T03:32:22.217Z,2.88
2023-03-29T03:38:19.168Z,2.88
2023-03-29T03:43:57.313Z,2.88
2023-03-29T03:49:23.208Z,2.92
2023-03-29T03:54:48.171Z,2.93
2023-03-29T04:00:34.219Z,2.97
2023-03-29T04:06:19.312Z,3.01
2023-03-29T04:12:22.200Z,3.04
2023-03-29T04:17:50.246Z,3.10
2023-03-29T04:23:18.217Z,3.11
2023-03-29T04:28:49.211Z,3.15
2023-03-29T04:34:34.200Z,3.13
2023-03-29T04:39:59.214Z,3.21
2023-03-29T04:45:36.221Z,3.19
2023-03-29T04:51:09.233Z,3.16
2023-03-29T04:56:35.197Z,3.14
2023-03-29T05:02:29.240Z,3.15
2023-03-29T05:07:57.229Z,3.22
2023-03-29T05:13:49.223Z,3.18
2023-03-29T05:19:16.225Z,3.21
2023-03-29T05:24:44.253Z,3.23
2023-03-29T05:30:18.252Z,3.28
2023-03-29T05:35:50.250Z,3.33
2023-03-29T05:41:18.230Z,3.37
2023-03-29T05:47:02.334Z,3.38
2023-03-29T05:52:26.240Z,3.42
2023-03-29T05:57:54.255Z,3.43
2023-03-29T06:03:25.618Z,3.47
2023-03-29T06:08:51.211Z,3.47
2023-03-29T06:14:34.267Z,3.54
2023-03-29T06:20:26.221Z,3.60
2023-03-29T06:25:58.251Z,3.64
2023-03-29T06:31:26.333Z,3.66
2023-03-29T06:36:52.246Z,3.74
2023-03-29T06:42:21.455Z,3.80
2023-03-29T06:48:09.309Z,3.87
2023-03-29T06:53:35.269Z,3.95
2023-03-29T06:59:01.257Z,4.05
2023-03-29T07:04:58.242Z,4.11
2023-03-29T07:10:28.346Z,4.23
2023-03-29T07:16:14.456Z,4.40
2023-03-29T07:21:41.326Z,4.51
2023-03-29T07:27:12.281Z,4.67
2023-03-29T07:32:40.338Z,4.77
2023-03-29T07:38:22.279Z,4.87
2023-03-29T07:43:57.276Z,4.99
2023-03-29T07:49:22.324Z,5.06
2023-03-29T07:54:50.319Z,5.12
2023-03-29T08:00:31.585Z,5.22
2023-03-29T08:06:18.441Z,5.45
2023-03-29T08:11:46.281Z,5.62
2023-03-29T08:22:38.312Z,6.01
2023-03-29T08:28:26.343Z,6.22
2023-03-29T08:33:51.300Z,6.43
2023-03-29T08:39:45.315Z,6.64
2023-03-29T08:45:50.918Z,6.89
2023-03-29T08:51:24.307Z,7.01
2023-03-29T08:56:52.547Z,7.15
2023-03-29T09:02:28.428Z,7.37
2023-03-29T09:07:57.343Z,7.57
2023-03-29T09:13:38.302Z,7.64
2023-03-29T09:19:17.363Z,7.79
2023-03-29T09:24:59.353Z,7.87
2023-03-29T09:30:35.308Z,8.23
2023-03-29T09:36:11.338Z,8.35
2023-03-29T09:41:43.321Z,8.41
2023-03-29T09:47:17.365Z,8.46
2023-03-29T09:52:44.320Z,8.55
2023-03-29T09:58:23.360Z,8.61
2023-03-29T10:03:49.353Z,8.71
2023-03-29T10:09:25.339Z,8.71
2023-03-29T10:15:05.362Z,8.91
2023-03-29T10:20:30.416Z,9.10
2023-03-29T10:25:58.370Z,9.28
2023-03-29T10:31:35.392Z,9.18
2023-03-29T10:37:06.351Z,9.35
2023-03-29T10:42:35.364Z,9.77
2023-03-29T10:48:00.399Z,9.91
2023-03-29T10:53:31.427Z,10.13
2023-03-29T10:59:14.392Z,10.51
2023-03-29T11:04:50.572Z,10.86
2023-03-29T11:10:33.409Z,11.06
2023-03-29T11:16:12.435Z,11.50
2023-03-29T11:21:44.530Z,11.59
2023-03-29T11:27:22.611Z,11.25
2023-03-29T11:33:01.523Z,11.23
2023-03-29T11:38:36.403Z,11.29
2023-03-29T11:44:05.374Z,11.18
2023-03-29T11:49:36.392Z,10.99
2023-03-29T11:55:05.390Z,10.87
2023-03-29T12:00:34.652Z,10.90
2023-03-29T12:06:11.398Z,11.07
2023-03-29T12:11:48.841Z,11.23
2023-03-29T12:17:19.404Z,11.35
2023-03-29T12:22:48.404Z,11.64
2023-03-29T12:28:40.455Z,11.85
2023-03-29T12:34:13.585Z,12.32
2023-03-29T12:39:54.461Z,12.56
2023-03-29T12:45:49.448Z,12.24
2023-03-29T12:51:17.546Z,12.04
2023-03-29T12:56:50.429Z,12.07
2023-03-29T13:02:17.527Z,12.10
2023-03-29T13:07:55.434Z,12.42
2023-03-29T13:13:40.529Z,12.42
2023-03-29T13:19:19.464Z,12.37
2023-03-29T13:25:13.452Z,12.44
2023-03-29T13:31:00.844Z,12.43
2023-03-29T13:36:36.518Z,12.33
2023-03-29T13:42:05.750Z,12.32
2023-03-29T13:48:02.620Z,12.32
2023-03-29T13:53:40.619Z,12.37
2023-03-29T13:59:14.491Z,12.33
2023-03-29T14:04:46.472Z,12.35
2023-03-29T14:10:11.480Z,12.52
2023-03-29T14:15:39.578Z,12.91
2023-03-29T14:21:10.476Z,13.14
2023-03-29T14:26:43.504Z,13.04
2023-03-29T14:32:25.538Z,13.22
2023-03-29T14:37:54.548Z,13.53
2023-03-29T14:43:23.949Z,13.64
2023-03-29T14:48:48.475Z,13.51
2023-03-29T14:54:18.490Z,13.18
2023-03-29T14:59:47.561Z,13.21
2023-03-29T15:05:14.549Z,13.16
2023-03-29T15:10:47.491Z,13.04
2023-03-29T15:16:16.598Z,12.99
2023-03-29T15:21:43.515Z,12.90
2023-03-29T15:27:19.609Z,12.68
2023-03-29T15:32:45.617Z,12.58
2023-03-29T15:38:11.560Z,12.42
2023-03-29T15:43:40.723Z,12.37
2023-03-29T15:49:04.568Z,12.46
2023-03-29T15:54:31.540Z,12.40
2023-03-29T16:00:00.567Z,12.41
2023-03-29T16:05:30.567Z,12.43
2023-03-29T16:10:56.526Z,12.38
2023-03-29T16:16:25.885Z,12.32
2023-03-29T16:21:53.973Z,12.32
2023-03-29T16:27:25.789Z,12.26
2023-03-29T16:32:53.640Z,12.16
2023-03-29T16:38:18.629Z,12.08
2023-03-29T16:43:45.543Z,12.03
2023-03-29T16:49:14.568Z,11.99
2023-03-29T16:54:36.574Z,11.92
2023-03-29T17:00:01.782Z,11.85
2023-03-29T17:05:28.569Z,11.80
2023-03-29T17:10:54.580Z,11.69
2023-03-29T17:16:20.729Z,11.64
2023-03-29T17:21:48.593Z,11.59
2023-03-29T17:27:13.788Z,11.49
2023-03-29T17:32:38.622Z,11.40
2023-03-29T17:38:07.574Z,11.32
2023-03-29T17:43:32.601Z,11.22
2023-03-29T17:48:57.575Z,11.09
2023-03-29T17:54:25.789Z,10.91
2023-03-29T17:59:49.614Z,10.68
2023-03-29T18:05:16.602Z,10.54
2023-03-29T18:10:44.600Z,10.40
2023-03-29T18:16:09.680Z,10.35
2023-03-29T18:21:35.628Z,10.28
2023-03-29T18:27:03.624Z,10.25
2023-03-29T18:32:35.695Z,10.29
2023-03-29T18:38:02.666Z,10.32
2023-03-29T18:43:29.680Z,10.29
2023-03-29T18:48:55.862Z,10.29
2023-03-29T18:54:20.663Z,10.29
2023-03-29T18:59:48.633Z,10.32
2023-03-29T19:05:12.652Z,10.31
2023-03-29T19:10:38.676Z,10.32
2023-03-29T19:16:06.801Z,10.31
2023-03-29T19:21:31.639Z,10.29
2023-03-29T19:26:58.679Z,10.27
2023-03-29T19:32:33.769Z,10.16
2023-03-29T19:37:58.656Z,10.23
2023-03-29T19:43:23.645Z,10.21
2023-03-29T19:48:52.657Z,10.15
2023-03-29T19:54:19.670Z,10.15
2023-03-29T19:59:47.643Z,10.05
2023-03-29T20:05:16.673Z,10.10
2023-03-29T20:10:41.683Z,10.08
2023-03-29T20:16:05.659Z,10.03
2023-03-29T20:21:33.713Z,10.03
2023-03-29T20:26:58.721Z,9.98
2023-03-29T20:32:29.699Z,9.97
2023-03-29T20:37:57.702Z,9.95
2023-03-29T20:43:25.699Z,9.97
2023-03-29T20:48:59.674Z,10.09
2023-03-29T20:54:26.719Z,10.15
2023-03-29T20:59:52.754Z,10.28
2023-03-29T21:05:17.701Z,10.32
2023-03-29T21:10:48.684Z,10.35
2023-03-29T21:16:12.776Z,10.36
2023-03-29T21:21:40.716Z,10.52
2023-03-29T21:27:07.716Z,10.52
2023-03-29T21:32:38.757Z,10.53
2023-03-29T21:38:03.812Z,10.56
2023-03-29T21:43:30.712Z,10.58
2023-03-29T21:48:55.735Z,10.58
2023-03-29T21:54:20.752Z,10.58
2023-03-29T21:59:50.745Z,10.60
2023-03-29T22:05:15.704Z,10.66
2023-03-29T22:10:40.704Z,10.63
2023-03-29T22:16:12.808Z,10.67
2023-03-29T22:21:39.753Z,10.66
2023-03-29T22:27:05.738Z,10.69
2023-03-29T22:32:39.769Z,10.63
2023-03-29T22:38:04.788Z,10.62
2023-03-29T22:43:28.756Z,10.66
2023-03-29T22:48:56.757Z,10.68
2023-03-29T22:54:20.776Z,10.69
2023-03-29T22:59:45.772Z,10.69
2023-03-29T23:05:13.795Z,10.69
2023-03-29T23:10:38.755Z,10.71
2023-03-29T23:16:06.008Z,10.69
2023-03-29T23:21:34.770Z,10.68
2023-03-29T23:26:58.774Z,10.67
2023-03-29T23:32:31.837Z,10.69
2023-03-29T23:37:59.785Z,10.73
2023-03-29T23:43:24.749Z,10.74
2023-03-29T23:48:52.968Z,10.74
2023-03-29T23:54:21.756Z,10.72
2023-03-29T23:59:46.767Z,10.69
